createdAt,value
2023-01-26T00:00:52.159Z,1.09
2023-01-26T00:03:20.467Z,1.13
2023-01-26T00:05:48.817Z,1.17
2023-01-26T00:08:17.155Z,1.17
2023-01-26T00:10:50.443Z,1.18
2023-01-26T00:13:20.046Z,1.19
2023-01-26T00:15:48.280Z,1.23
2023-01-26T00:18:16.733Z,1.19
2023-01-26T00:20:45.201Z,1.14
2023-01-26T00:23:13.409Z,1.07
2023-01-26T00:25:41.591Z,1.04
2023-01-26T00:28:10.002Z,1.06
2023-01-26T00:30:38.215Z,1.11
2023-01-26T00:33:09.359Z,1.18
2023-01-26T00:35:37.913Z,1.15
2023-01-26T00:38:06.115Z,1.13
2023-01-26T00:40:35.739Z,1.12
2023-01-26T00:43:04.282Z,1.16
2023-01-26T00:45:32.554Z,1.23
2023-01-26T00:48:00.883Z,1.30
2023-01-26T00:50:31.502Z,1.36
2023-01-26T00:53:00.039Z,1.43
2023-01-26T00:55:32.550Z,1.45
2023-01-26T00:58:02.312Z,1.45
2023-01-26T01:00:32.177Z,1.42
2023-01-26T01:03:00.342Z,1.35
2023-01-26T01:05:29.867Z,1.28
2023-01-26T01:07:58.478Z,1.18
2023-01-26T01:10:27.891Z,1.17
2023-01-26T01:12:57.237Z,1.20
2023-01-26T01:15:26.374Z,1.24
2023-01-26T01:17:56.599Z,1.28
2023-01-26T01:20:27.703Z,1.32
2023-01-26T01:22:55.837Z,1.37
2023-01-26T01:25:24.273Z,1.43
2023-01-26T01:27:52.530Z,1.48
2023-01-26T01:30:20.905Z,1.47
2023-01-26T01:32:51.818Z,1.48
2023-01-26T01:35:20.331Z,1.53
2023-01-26T01:37:48.936Z,1.52
2023-01-26T01:40:20.029Z,1.49
2023-01-26T01:42:50.498Z,1.42
2023-01-26T01:45:28.253Z,1.35
2023-01-26T01:48:02.595Z,1.36
2023-01-26T01:50:32.596Z,1.42
2023-01-26T01:53:02.577Z,1.46
2023-01-26T01:55:30.800Z,1.46
2023-01-26T01:58:00.820Z,1.41
2023-01-26T02:00:36.587Z,1.40
2023-01-26T02:03:38.064Z,1.35
2023-01-26T02:06:33.980Z,1.26
2023-01-26T02:10:14.455Z,1.16
2023-01-26T02:13:10.635Z,1.08
2023-01-26T02:16:02.847Z,1.02
2023-01-26T02:25:05.399Z,0.88
2023-01-26T02:28:04.472Z,0.87
2023-01-26T02:30:56.403Z,0.89
2023-01-26T02:33:51.874Z,0.88
2023-01-26T02:36:43.989Z,0.85
2023-01-26T02:40:06.476Z,0.85
2023-01-26T02:43:22.709Z,0.86
2023-01-26T02:46:41.103Z,0.84
2023-01-26T02:49:44.362Z,0.81
2023-01-26T02:53:02.739Z,0.77
2023-01-26T02:55:45.429Z,0.76
2023-01-26T02:59:02.802Z,0.75
2023-01-26T03:01:53.508Z,0.76
2023-01-26T03:04:40.859Z,0.74
2023-01-26T03:07:53.179Z,0.72
2023-01-26T03:11:13.831Z,0.73
2023-01-26T03:14:09.641Z,0.74
2023-01-26T03:17:18.739Z,0.75
2023-01-26T03:20:27.100Z,0.78
2023-01-26T03:23:23.570Z,0.79
2023-01-26T03:26:42.026Z,0.75
2023-01-26T03:29:26.859Z,0.67
2023-01-26T03:32:30.331Z,0.61
2023-01-26T03:35:24.275Z,0.60
2023-01-26T03:38:20.172Z,0.62
2023-01-26T03:41:26.824Z,0.64
2023-01-26T03:44:41.811Z,0.65
2023-01-26T03:47:47.176Z,0.70
2023-01-26T03:50:47.067Z,0.76
2023-01-26T03:53:55.851Z,0.83
2023-01-26T03:56:48.530Z,0.88
2023-01-26T04:00:06.055Z,0.94
2023-01-26T04:03:47.272Z,0.99
2023-01-26T04:07:04.487Z,1.02
2023-01-26T04:10:02.929Z,1.05
2023-01-26T04:12:55.095Z,1.08
2023-01-26T04:15:50.871Z,1.11
2023-01-26T04:19:23.204Z,1.12
2023-01-26T04:22:02.457Z,1.05
2023-01-26T04:29:16.590Z,0.89
2023-01-26T04:32:39.387Z,0.84
2023-01-26T04:35:26.276Z,0.83
2023-01-26T04:38:27.618Z,0.84
2023-01-26T04:41:16.916Z,0.80
2023-01-26T04:43:58.352Z,0.79
2023-01-26T04:47:00.110Z,0.78
2023-01-26T04:47:23.010Z,0.95
2023-01-26T04:50:10.430Z,0.71
2023-01-26T04:53:09.239Z,0.65
2023-01-26T04:56:12.186Z,0.62
2023-01-26T04:59:31.633Z,0.63
2023-01-26T05:02:41.757Z,0.63
2023-01-26T05:05:39.895Z,0.65
2023-01-26T05:08:20.065Z,0.67
2023-01-26T05:14:22.858Z,0.73
2023-01-26T05:17:34.541Z,0.73
2023-01-26T05:20:38.191Z,0.73
2023-01-26T05:23:32.664Z,0.75
2023-01-26T05:26:28.470Z,0.75
2023-01-26T05:29:34.831Z,0.76
2023-01-26T05:33:24.712Z,0.78
2023-01-26T05:36:01.751Z,0.77
2023-01-26T05:38:55.127Z,0.79
2023-01-26T05:41:58.292Z,0.80
2023-01-26T05:45:08.187Z,0.79
2023-01-26T05:48:08.419Z,0.79
2023-01-26T05:54:07.096Z,0.79
2023-01-26T05:56:57.724Z,0.79
2023-01-26T06:01:33.089Z,0.84
2023-01-26T06:03:05.210Z,0.93
2023-01-26T06:06:07.215Z,0.94
2023-01-26T06:09:06.145Z,1.00
2023-01-26T06:23:38.723Z,1.35
2023-01-26T06:26:09.435Z,1.78
2023-01-26T06:28:40.171Z,1.73
2023-01-26T06:31:09.336Z,1.66
2023-01-26T06:33:39.000Z,1.60
2023-01-26T06:36:10.665Z,1.55
2023-01-26T06:38:39.898Z,1.52
2023-01-26T06:41:10.731Z,1.51
2023-01-26T06:43:45.219Z,1.50
2023-01-26T06:46:15.657Z,1.46
2023-01-26T06:48:44.680Z,1.44
2023-01-26T06:51:21.292Z,1.43
2023-01-26T06:53:56.882Z,1.42
2023-01-26T06:56:47.820Z,1.40
2023-01-26T06:59:37.593Z,1.35
2023-01-26T07:02:30.036Z,1.31
2023-01-26T07:04:59.168Z,1.31
2023-01-26T08:46:13.512Z,1.52
2023-01-26T08:48:40.890Z,2.35
2023-01-26T08:51:07.816Z,2.49
2023-01-26T08:53:35.538Z,2.59
2023-01-26T08:56:05.592Z,2.70
2023-01-26T08:58:33.419Z,2.79
2023-01-26T09:01:06.926Z,2.83
2023-01-26T09:03:33.864Z,2.85
2023-01-26T09:06:00.999Z,2.90
2023-01-26T09:08:28.003Z,2.94
2023-01-26T09:10:55.250Z,2.98
2023-01-26T09:13:22.533Z,3.03
2023-01-26T09:16:17.976Z,3.12
2023-01-26T09:18:45.057Z,3.17
2023-01-26T09:21:12.484Z,3.21
2023-01-26T09:23:39.469Z,3.26
2023-01-26T09:26:06.819Z,3.34
2023-01-26T09:28:34.007Z,3.40
2023-01-26T09:31:04.879Z,3.46
2023-01-26T09:33:32.958Z,3.60
2023-01-26T09:36:04.757Z,4.00
2023-01-26T09:38:31.729Z,4.19
2023-01-26T09:41:07.675Z,4.29
2023-01-26T09:43:52.605Z,4.36
2023-01-26T09:46:47.667Z,4.44
2023-01-26T09:49:26.966Z,4.54
2023-01-26T09:52:01.755Z,4.68
2023-01-26T09:54:36.874Z,4.89
2023-01-26T09:57:51.837Z,5.07
2023-01-26T10:00:23.015Z,5.22
2023-01-26T10:03:05.299Z,5.27
2023-01-26T10:05:38.537Z,5.28
2023-01-26T10:08:13.209Z,5.26
2023-01-26T10:10:47.305Z,5.26
2023-01-26T10:13:14.724Z,5.23
2023-01-26T10:15:42.762Z,5.17
2023-01-26T10:18:22.103Z,5.08
2023-01-26T10:20:52.130Z,4.98
2023-01-26T10:23:24.496Z,4.88
2023-01-26T10:25:51.544Z,4.81
2023-01-26T10:28:34.549Z,4.81
2023-01-26T10:31:02.653Z,4.79
2023-01-26T10:33:36.736Z,4.78
2023-01-26T10:36:06.073Z,4.79
2023-01-26T10:38:33.274Z,4.82
2023-01-26T10:41:00.982Z,4.84
2023-01-26T10:43:27.800Z,4.87
2023-01-26T10:45:55.304Z,4.91
2023-01-26T10:48:26.239Z,4.94
2023-01-26T10:50:53.572Z,5.00
2023-01-26T10:53:24.138Z,5.07
2023-01-26T10:56:12.790Z,5.13
2023-01-26T10:58:44.201Z,5.14
2023-01-26T11:01:15.717Z,5.13
2023-01-26T11:03:43.053Z,5.12
2023-01-26T11:06:14.583Z,5.14
2023-01-26T11:08:42.339Z,5.17
2023-01-26T11:11:25.957Z,5.21
2023-01-26T11:14:15.650Z,5.22
2023-01-26T11:16:47.102Z,5.20
2023-01-26T11:19:22.197Z,5.16
2023-01-26T11:22:08.934Z,4.78
2023-01-26T11:24:50.249Z,4.61
2023-01-26T11:27:35.507Z,4.58
2023-01-26T11:30:19.012Z,4.57
2023-01-26T11:33:12.765Z,4.61
2023-01-26T11:35:55.979Z,4.63
2023-01-26T11:38:39.849Z,4.61
2023-01-26T11:41:31.544Z,4.60
2023-01-26T11:44:13.761Z,4.56
2023-01-26T11:46:56.151Z,4.51
2023-01-26T11:49:32.922Z,4.45
2023-01-26T11:52:08.924Z,4.39
2023-01-26T11:54:42.892Z,4.34
2023-01-26T11:57:21.951Z,4.29
2023-01-26T11:59:56.479Z,4.26
2023-01-26T12:02:30.619Z,4.21
2023-01-26T12:05:02.782Z,4.18
2023-01-26T12:07:31.992Z,4.20
2023-01-26T12:10:00.199Z,4.19
2023-01-26T12:12:43.310Z,4.18
2023-01-26T12:15:13.248Z,4.18
2023-01-26T12:17:59.169Z,4.19
2023-01-26T12:20:31.927Z,4.20
2023-01-26T12:23:08.087Z,4.17
2023-01-26T12:25:58.195Z,4.14
2023-01-26T12:28:44.873Z,4.08
2023-01-26T12:31:29.027Z,4.04
2023-01-26T12:33:55.943Z,4.04
2023-01-26T12:36:31.839Z,4.02
2023-01-26T12:39:33.029Z,4.00
2023-01-26T12:42:11.963Z,4.00
2023-01-26T12:44:44.208Z,3.97
2023-01-26T12:47:32.569Z,3.93
2023-01-26T12:50:22.832Z,3.91
2023-01-26T12:53:06.053Z,3.86
2023-01-26T12:55:56.395Z,3.80
2023-01-26T12:58:25.573Z,3.75
2023-01-26T13:01:00.775Z,3.75
2023-01-26T13:03:44.119Z,3.75
2023-01-26T13:06:14.138Z,3.75
2023-01-26T13:08:56.827Z,3.74
2023-01-26T13:11:44.028Z,3.71
2023-01-26T13:14:31.697Z,3.69
2023-01-26T13:17:17.079Z,3.66
2023-01-26T13:19:46.540Z,3.65
2023-01-26T13:22:25.260Z,3.64
2023-01-26T13:24:55.368Z,3.61
2023-01-26T13:27:39.173Z,3.62
2023-01-26T13:30:27.842Z,3.61
2023-01-26T13:33:11.527Z,3.61
2023-01-26T13:35:38.483Z,3.59
2023-01-26T13:38:21.907Z,3.56
2023-01-26T13:40:49.901Z,3.51
2023-01-26T13:43:36.123Z,3.46
2023-01-26T13:46:25.639Z,3.41
2023-01-26T13:48:53.798Z,3.38
2023-01-26T17:58:40.728Z,2.35
2023-01-26T18:01:09.885Z,3.26
2023-01-26T18:03:42.860Z,3.33
2023-01-26T18:06:11.954Z,3.39
2023-01-26T18:08:42.959Z,3.42
2023-01-26T18:11:13.087Z,3.44
2023-01-26T18:13:41.946Z,3.46
2023-01-26T18:16:13.350Z,3.50
2023-01-26T18:18:42.051Z,3.52
2023-01-26T18:21:19.980Z,3.50
2023-01-26T18:23:49.015Z,3.49
2023-01-26T18:26:18.025Z,3.47
2023-01-26T18:28:46.777Z,3.48
2023-01-26T18:31:21.240Z,3.51
2023-01-26T18:33:52.002Z,3.55
2023-01-26T18:36:21.308Z,3.59
2023-01-26T18:39:01.218Z,3.59
2023-01-26T18:41:31.435Z,3.59
2023-01-26T18:44:00.211Z,3.60
2023-01-26T18:46:31.060Z,3.60
2023-01-26T18:49:04.032Z,3.60
2023-01-26T18:51:34.908Z,3.60
2023-01-26T18:54:04.449Z,3.61
2023-01-26T18:56:34.119Z,3.62
2023-01-26T18:59:02.403Z,3.62
2023-01-26T19:01:31.012Z,3.61
2023-01-26T19:03:59.329Z,3.54
2023-01-26T19:06:28.590Z,3.38
2023-01-26T19:09:00.516Z,3.51
2023-01-26T19:11:31.258Z,3.55
2023-01-26T19:13:59.947Z,3.57
2023-01-26T19:16:29.272Z,3.58
2023-01-26T19:18:57.832Z,3.57
2023-01-26T19:21:27.881Z,3.55
2023-01-26T19:23:57.931Z,3.52
2023-01-26T19:26:28.104Z,3.50
2023-01-26T19:28:56.473Z,3.51
2023-01-26T19:31:26.767Z,3.53
2023-01-26T19:33:57.173Z,3.54
2023-01-26T19:36:26.252Z,3.54
2023-01-26T19:38:55.463Z,3.54
2023-01-26T19:41:24.010Z,3.56
2023-01-26T19:43:52.705Z,3.55
2023-01-26T19:46:21.419Z,3.56
2023-01-26T19:48:50.787Z,3.55
2023-01-26T19:51:23.777Z,3.56
2023-01-26T19:53:55.987Z,3.58
2023-01-26T19:56:29.668Z,3.58
2023-01-26T19:58:59.981Z,3.56
2023-01-26T20:01:34.091Z,3.56
2023-01-26T20:04:07.636Z,3.57
2023-01-26T20:06:36.578Z,3.60
2023-01-26T20:09:06.629Z,3.27
2023-01-26T20:11:35.236Z,2.79
2023-01-26T20:14:06.593Z,2.68
2023-01-26T20:16:36.149Z,2.64
2023-01-26T20:19:07.160Z,2.59
2023-01-26T20:21:38.993Z,2.55
2023-01-26T20:24:09.337Z,2.50
2023-01-26T20:26:39.179Z,2.43
2023-01-26T20:29:11.462Z,2.42
2023-01-26T20:31:39.954Z,2.43
2023-01-26T20:34:09.877Z,2.42
2023-01-26T20:36:40.596Z,2.43
2023-01-26T20:39:11.932Z,2.41
2023-01-26T20:41:40.881Z,2.40
2023-01-26T20:44:10.319Z,2.40
2023-01-26T20:46:40.619Z,2.39
2023-01-26T20:49:12.179Z,2.40
2023-01-26T20:51:43.844Z,2.42
2023-01-26T20:54:16.600Z,2.43
2023-01-26T20:56:49.218Z,2.41
2023-01-26T20:59:18.793Z,2.40
2023-01-26T21:01:47.392Z,2.36
2023-01-26T21:04:16.589Z,2.34
2023-01-26T21:06:45.174Z,2.34
2023-01-26T21:09:13.733Z,2.99
2023-01-26T21:11:44.111Z,3.23
2023-01-26T21:14:13.776Z,3.31
2023-01-26T21:16:48.693Z,3.34
2023-01-26T21:19:17.514Z,3.38
2023-01-26T21:21:46.079Z,3.40
2023-01-26T21:24:15.523Z,3.35
2023-01-26T21:26:43.777Z,3.36
2023-01-26T21:29:14.416Z,3.36
2023-01-26T21:31:43.028Z,3.26
2023-01-26T21:34:11.723Z,3.08
2023-01-26T21:36:39.917Z,3.23
2023-01-26T21:39:12.501Z,3.25
2023-01-26T21:41:55.982Z,3.26
2023-01-26T21:44:26.191Z,3.24
2023-01-26T21:46:57.250Z,3.23
2023-01-26T21:49:25.449Z,3.23
2023-01-26T21:52:12.731Z,3.22
